If you wish to contribute or participate in the discussions about articles you are invited to join SKYbrary as a registered user

 Actions

Kyzylorda Airport

From SKYbrary Wiki

UAOO
Airport
ICAO: UAOO – IATA: KZO
Summary
Name Kyzylorda Airport
Region Asia and Pacific
Territory Kazakhstan KZ.gif
Location Kyzylorda
Serving Kyzylorda
Elevation 131 m
429.79 ft
429.79 ft131 m
Coordinates 44° 42' 44.00" N, 65° 35' 34.37" E
Runways
Designator Length Width Surface ROPS


METAR
Observation UAOO 250030Z 00000MPS 9999 SCT046CB 04/03 Q1020 NOSIG RMK QFE754/1005
Station Kzyl-Orda
Date/Time 25 April 2019 00:30:00
Wind direction
Wind speed kts
Lowest cloud amount scattered clouds
Temperature 4°C
Dew point 3°C
Humidity 93%
QNH 1020 hPa
Weather condition n/a

BS
Tag(s) Bird Strike
CFIT
Tag(s) Altimeter Temperature Error Correction
WX
Tag(s) Cumulonimbus

Kyzylorda Airport

ICAO: UAOO IATA: KZO

Description

Regional airport serving the city of Kyzylorda (formerly Kzyl-Orda), the capital city of Kyzylorda province.

Climatology

Cold Semi-arid climate (Köppen climate classification BSk). - Hot, sometimes extremely hot summers and cold, sometimes very cold winters. Some snowfall during the winter. Areas featuring cold semi-arid climates are sometimes subject to major temperature swings during a 24 hour period.

Maps

Terrain

Loading map...

Airport Layout

Loading map...


Accidents & Serious Incidents at or in vicinity of UAOO

None on SKYbrary